sensor_id;sensor_type;location;lat;lon;timestamp;temperature;humidity
43995;DHT22;51687;52.160;5.298;2023-06-22T00:03:25;24.90;54.20
43995;DHT22;51687;52.160;5.298;2023-06-22T00:05:52;24.50;54.80
43995;DHT22;51687;52.160;5.298;2023-06-22T00:52:56;24.50;55.00
43995;DHT22;51687;52.160;5.298;2023-06-22T00:55:23;24.10;55.80
43995;DHT22;51687;52.160;5.298;2023-06-22T00:57:50;24.10;55.80
43995;DHT22;51687;52.160;5.298;2023-06-22T01:00:18;24.10;55.90
43995;DHT22;51687;52.160;5.298;2023-06-22T01:02:46;24.10;55.60
43995;DHT22;51687;52.160;5.298;2023-06-22T01:05:14;24.10;55.50
43995;DHT22;51687;52.160;5.298;2023-06-22T01:15:49;24.10;55.60
43995;DHT22;51687;52.160;5.298;2023-06-22T01:18:18;24.00;55.40
43995;DHT22;51687;52.160;5.298;2023-06-22T01:20:46;24.00;55.20
43995;DHT22;51687;52.160;5.298;2023-06-22T01:33:53;24.00;55.20
43995;DHT22;51687;52.160;5.298;2023-06-22T01:36:21;23.80;55.10
43995;DHT22;51687;52.160;5.298;2023-06-22T01:48:39;23.70;55.40
43995;DHT22;51687;52.160;5.298;2023-06-22T01:51:06;23.70;55.70
43995;DHT22;51687;52.160;5.298;2023-06-22T01:53:33;23.60;55.40
43995;DHT22;51687;52.160;5.298;2023-06-22T01:56:00;23.60;55.30
43995;DHT22;51687;52.160;5.298;2023-06-22T01:58:28;23.60;55.00
43995;DHT22;51687;52.160;5.298;2023-06-22T02:50:24;23.60;55.30
43995;DHT22;51687;52.160;5.298;2023-06-22T02:52:50;23.30;54.80
43995;DHT22;51687;52.160;5.298;2023-06-22T02:55:17;23.20;54.80
43995;DHT22;51687;52.160;5.298;2023-06-22T02:57:44;23.20;54.70
43995;DHT22;51687;52.160;5.298;2023-06-22T03:00:14;23.10;54.70
43995;DHT22;51687;52.160;5.298;2023-06-22T03:02:48;23.10;54.90
43995;DHT22;51687;52.160;5.298;2023-06-22T03:05:15;23.10;54.90
43995;DHT22;51687;52.160;5.298;2023-06-22T03:07:45;23.00;55.00
43995;DHT22;51687;52.160;5.298;2023-06-22T03:10:14;23.00;55.30
43995;DHT22;51687;52.160;5.298;2023-06-22T03:12:41;23.00;55.30
43995;DHT22;51687;52.160;5.298;2023-06-22T03:15:11;23.00;55.00
43995;DHT22;51687;52.160;5.298;2023-06-22T03:17:39;23.00;55.00
43995;DHT22;51687;52.160;5.298;2023-06-22T03:20:07;23.00;55.40
43995;DHT22;51687;52.160;5.298;2023-06-22T03:32:32;23.00;55.10
43995;DHT22;51687;52.160;5.298;2023-06-22T03:34:59;22.90;55.40
43995;DHT22;51687;52.160;5.298;2023-06-22T03:37:26;22.90;55.60
43995;DHT22;51687;52.160;5.298;2023-06-22T03:39:53;22.80;55.50
43995;DHT22;51687;52.160;5.298;2023-06-22T03:42:20;22.80;55.50
43995;DHT22;51687;52.160;5.298;2023-06-22T03:44:47;22.80;55.40
43995;DHT22;51687;52.160;5.298;2023-06-22T03:47:14;22.80;55.40
43995;DHT22;51687;52.160;5.298;2023-06-22T03:49:41;22.80;55.40
43995;DHT22;51687;52.160;5.298;2023-06-22T03:52:09;22.80;55.70
43995;DHT22;51687;52.160;5.298;2023-06-22T03:54:37;22.70;55.70
43995;DHT22;51687;52.160;5.298;2023-06-22T03:57:04;22.70;55.80
43995;DHT22;51687;52.160;5.298;2023-06-22T03:59:31;22.70;55.80
43995;DHT22;51687;52.160;5.298;2023-06-22T04:01:59;22.70;55.80
43995;DHT22;51687;52.160;5.298;2023-06-22T04:04:25;22.60;56.00
43995;DHT22;51687;52.160;5.298;2023-06-22T04:06:52;22.60;56.20
43995;DHT22;51687;52.160;5.298;2023-06-22T04:21:43;22.60;56.20
43995;DHT22;51687;52.160;5.298;2023-06-22T04:24:11;22.60;56.60
43995;DHT22;51687;52.160;5.298;2023-06-22T04:26:38;22.60;56.80
43995;DHT22;51687;52.160;5.298;2023-06-22T04:29:04;22.60;57.10
43995;DHT22;51687;52.160;5.298;2023-06-22T04:31:35;22.60;57.30
43995;DHT22;51687;52.160;5.298;2023-06-22T04:34:06;22.60;57.60
43995;DHT22;51687;52.160;5.298;2023-06-22T04:36:38;22.60;57.60
43995;DHT22;51687;52.160;5.298;2023-06-22T04:39:10;22.70;57.50
43995;DHT22;51687;52.160;5.298;2023-06-22T04:41:38;22.80;57.60
43995;DHT22;51687;52.160;5.298;2023-06-22T04:44:15;22.90;58.30
43995;DHT22;51687;52.160;5.298;2023-06-22T04:46:51;22.90;58.30
43995;DHT22;51687;52.160;5.298;2023-06-22T04:49:27;22.90;58.40
43995;DHT22;51687;52.160;5.298;2023-06-22T04:52:00;22.90;59.10
43995;DHT22;51687;52.160;5.298;2023-06-22T04:54:27;23.00;60.00
43995;DHT22;51687;52.160;5.298;2023-06-22T04:56:54;23.00;60.20
43995;DHT22;51687;52.160;5.298;2023-06-22T04:59:26;23.00;60.60
43995;DHT22;51687;52.160;5.298;2023-06-22T05:01:58;23.10;60.40
43995;DHT22;51687;52.160;5.298;2023-06-22T05:04:26;23.10;60.70
43995;DHT22;51687;52.160;5.298;2023-06-22T05:06:54;23.20;60.50
43995;DHT22;51687;52.160;5.298;2023-06-22T05:09:21;23.20;60.30
43995;DHT22;51687;52.160;5.298;2023-06-22T05:11:48;23.30;60.50
43995;DHT22;51687;52.160;5.298;2023-06-22T05:14:15;23.40;60.50
43995;DHT22;51687;52.160;5.298;2023-06-22T05:16:43;23.50;60.40
43995;DHT22;51687;52.160;5.298;2023-06-22T05:19:10;23.60;60.40
43995;DHT22;51687;52.160;5.298;2023-06-22T05:21:37;23.60;60.10
43995;DHT22;51687;52.160;5.298;2023-06-22T06:05:55;23.60;60.40
43995;DHT22;51687;52.160;5.298;2023-06-22T06:08:22;23.90;60.60
43995;DHT22;51687;52.160;5.298;2023-06-22T06:10:49;23.90;62.10
43995;DHT22;51687;52.160;5.298;2023-06-22T06:13:16;23.90;62.40
43995;DHT22;51687;52.160;5.298;2023-06-22T06:15:42;23.90;62.70
43995;DHT22;51687;52.160;5.298;2023-06-22T06:18:09;23.90;62.80
43995;DHT22;51687;52.160;5.298;2023-06-22T06:20:36;23.90;62.90
43995;DHT22;51687;52.160;5.298;2023-06-22T06:23:03;24.00;62.90
43995;DHT22;51687;52.160;5.298;2023-06-22T07:05:03;24.00;63.20
43995;DHT22;51687;52.160;5.298;2023-06-22T07:07:31;24.00;62.90
43995;DHT22;51687;52.160;5.298;2023-06-22T07:09:59;24.00;62.90
43995;DHT22;51687;52.160;5.298;2023-06-22T07:12:25;24.00;62.60
43995;DHT22;51687;52.160;5.298;2023-06-22T07:14:52;24.00;62.10
43995;DHT22;51687;52.160;5.298;2023-06-22T07:17:19;24.00;62.00
43995;DHT22;51687;52.160;5.298;2023-06-22T07:19:46;24.00;61.90
43995;DHT22;51687;52.160;5.298;2023-06-22T07:22:13;24.00;62.40
43995;DHT22;51687;52.160;5.298;2023-06-22T07:24:39;24.00;61.80
43995;DHT22;51687;52.160;5.298;2023-06-22T07:27:09;24.10;61.80
43995;DHT22;51687;52.160;5.298;2023-06-22T07:29:38;24.10;62.10
43995;DHT22;51687;52.160;5.298;2023-06-22T07:32:07;24.10;62.20
43995;DHT22;51687;52.160;5.298;2023-06-22T08:01:37;24.10;62.30
43995;DHT22;51687;52.160;5.298;2023-06-22T08:04:03;24.30;61.90
43995;DHT22;51687;52.160;5.298;2023-06-22T08:16:22;24.40;60.40
43995;DHT22;51687;52.160;5.298;2023-06-22T08:18:49;24.40;59.70
43995;DHT22;51687;52.160;5.298;2023-06-22T08:58:04;24.50;59.60
43995;DHT22;51687;52.160;5.298;2023-06-22T09:00:31;24.80;55.60
43995;DHT22;51687;52.160;5.298;2023-06-22T09:03:01;24.80;55.50
43995;DHT22;51687;52.160;5.298;2023-06-22T09:05:28;24.90;55.50
43995;DHT22;51687;52.160;5.298;2023-06-22T09:07:56;24.90;55.40
43995;DHT22;51687;52.160;5.298;2023-06-22T09:10:23;24.90;54.80
43995;DHT22;51687;52.160;5.298;2023-06-22T09:12:50;24.90;55.00
43995;DHT22;51687;52.160;5.298;2023-06-22T09:15:16;24.90;55.00
43995;DHT22;51687;52.160;5.298;2023-06-22T09:17:44;24.90;53.90
43995;DHT22;51687;52.160;5.298;2023-06-22T09:20:13;25.00;54.50
43995;DHT22;51687;52.160;5.298;2023-06-22T09:22:40;25.00;55.10
43995;DHT22;51687;52.160;5.298;2023-06-22T21:04:13;25.00;55.40
43995;DHT22;51687;52.160;5.298;2023-06-22T21:06:40;24.50;56.90
43995;DHT22;51687;52.160;5.298;2023-06-22T21:09:07;24.40;56.80
43995;DHT22;51687;52.160;5.298;2023-06-22T21:11:34;24.40;57.40
43995;DHT22;51687;52.160;5.298;2023-06-22T21:14:01;24.40;56.80
43995;DHT22;51687;52.160;5.298;2023-06-22T21:16:45;24.30;57.10
43995;DHT22;51687;52.160;5.298;2023-06-22T21:19:12;24.30;58.10
43995;DHT22;51687;52.160;5.298;2023-06-22T21:21:38;24.30;59.10
43995;DHT22;51687;52.160;5.298;2023-06-22T21:24:05;24.20;59.10
43995;DHT22;51687;52.160;5.298;2023-06-22T21:26:32;24.20;58.90
43995;DHT22;51687;52.160;5.298;2023-06-22T21:28:59;24.20;59.40
43995;DHT22;51687;52.160;5.298;2023-06-22T21:31:26;24.10;59.50
43995;DHT22;51687;52.160;5.298;2023-06-22T21:33:53;24.10;60.30
43995;DHT22;51687;52.160;5.298;2023-06-22T21:36:19;24.10;59.20
43995;DHT22;51687;52.160;5.298;2023-06-22T21:38:46;24.10;58.60
43995;DHT22;51687;52.160;5.298;2023-06-22T21:43:40;24.00;58.40
43995;DHT22;51687;52.160;5.298;2023-06-22T21:46:07;24.00;58.60
43995;DHT22;51687;52.160;5.298;2023-06-22T21:48:34;24.00;58.30
43995;DHT22;51687;52.160;5.298;2023-06-22T21:51:01;23.90;58.30
43995;DHT22;51687;52.160;5.298;2023-06-22T21:53:28;23.90;58.00
43995;DHT22;51687;52.160;5.298;2023-06-22T21:55:54;23.90;58.30
43995;DHT22;51687;52.160;5.298;2023-06-22T21:58:22;23.80;58.10
43995;DHT22;51687;52.160;5.298;2023-06-22T22:00:53;23.80;57.90
43995;DHT22;51687;52.160;5.298;2023-06-22T22:03:24;23.80;58.50
43995;DHT22;51687;52.160;5.298;2023-06-22T22:05:53;23.80;58.30
43995;DHT22;51687;52.160;5.298;2023-06-22T22:10:48;23.80;58.40
43995;DHT22;51687;52.160;5.298;2023-06-22T22:13:15;23.80;59.10
43995;DHT22;51687;52.160;5.298;2023-06-22T22:15:42;23.70;59.10
43995;DHT22;51687;52.160;5.298;2023-06-22T22:18:10;23.70;58.80
43995;DHT22;51687;52.160;5.298;2023-06-22T22:20:39;23.70;58.50
43995;DHT22;51687;52.160;5.298;2023-06-22T22:23:06;23.70;58.90
43995;DHT22;51687;52.160;5.298;2023-06-22T22:25:34;23.70;59.60
43995;DHT22;51687;52.160;5.298;2023-06-22T22:28:01;23.70;59.70
43995;DHT22;51687;52.160;5.298;2023-06-22T22:30:28;23.70;59.00
43995;DHT22;51687;52.160;5.298;2023-06-22T22:32:54;23.70;60.00
43995;DHT22;51687;52.160;5.298;2023-06-22T22:35:21;23.70;60.50
43995;DHT22;51687;52.160;5.298;2023-06-22T22:37:48;23.70;60.40
43995;DHT22;51687;52.160;5.298;2023-06-22T22:42:44;23.60;60.50
43995;DHT22;51687;52.160;5.298;2023-06-22T22:45:10;23.60;60.80
43995;DHT22;51687;52.160;5.298;2023-06-22T22:47:37;23.60;60.70
43995;DHT22;51687;52.160;5.298;2023-06-22T22:50:04;23.60;60.90
43995;DHT22;51687;52.160;5.298;2023-06-22T22:52:33;23.50;61.20
43995;DHT22;51687;52.160;5.298;2023-06-22T22:57:33;23.60;61.10
43995;DHT22;51687;52.160;5.298;2023-06-22T23:00:00;23.50;61.10
43995;DHT22;51687;52.160;5.298;2023-06-22T23:02:27;23.50;61.30
